Sign-in with your pilot id or email, or register

ICAO: UHMM Name / Country: Sokol Airport / Russia
Latitude: 59.911 Longitude: 150.72
Total Arrivals:
Strict Standards: Non-static method AirportData::getarrflights() should not be called statically, assuming $this from incompatible context in /var/www/customers/vh-7192/web/home/phpvms/core/templates/airport_info.tpl on line 18
1
Total Departures:
Strict Standards: Non-static method AirportData::getdeptflights() should not be called statically, assuming $this from incompatible context in /var/www/customers/vh-7192/web/home/phpvms/core/templates/airport_info.tpl on line 21
0
Latest Arrival: MTA5PM (UHHH-UHMM) Tibor Berces Latest Departure: (-)
Metar: UHMM 251500Z 00000MPS 7000 NSC M04/M06 Q1028 RMK QFE756 R28/08002MPS
More info

Charts for UHMM


NOTAM


Warning: file_get_contents(http://api.vateud.net/notams/UHMM.json): failed to open stream: Redirection limit reached, aborting in /var/www/customers/vh-7192/web/home/phpvms/core/common/NOTAMSData.class.php on line 18

Warning: Invalid argument supplied for foreach() in /var/www/customers/vh-7192/web/home/phpvms/core/common/NOTAMSData.class.php on line 22

Sokol Airport